createdAt,value
2018-04-25T00:00:45.631Z,99.90
2018-04-25T00:01:48.193Z,99.90
2018-04-25T00:02:50.740Z,99.90
2018-04-25T00:03:53.268Z,99.90
2018-04-25T00:04:55.791Z,99.90
2018-04-25T00:05:58.315Z,99.90
2018-04-25T00:07:00.872Z,99.90
2018-04-25T00:08:03.416Z,99.90
2018-04-25T00:09:05.952Z,99.90
2018-04-25T00:10:08.484Z,99.90
2018-04-25T00:11:11.009Z,99.90
2018-04-25T00:12:14.343Z,99.90
2018-04-25T00:13:16.872Z,99.90
2018-04-25T00:14:19.419Z,99.90
2018-04-25T00:15:22.707Z,99.90
2018-04-25T00:16:26.031Z,99.90
2018-04-25T00:17:28.593Z,99.90
2018-04-25T00:18:31.131Z,99.90
2018-04-25T00:19:33.669Z,99.90
2018-04-25T00:20:36.195Z,99.90
2018-04-25T00:21:38.752Z,99.90
2018-04-25T00:22:41.335Z,99.90
2018-04-25T00:23:43.864Z,99.90
2018-04-25T00:24:46.413Z,99.90
2018-04-25T00:25:49.716Z,99.90
2018-04-25T00:26:52.240Z,99.90
2018-04-25T00:27:54.807Z,99.90
2018-04-25T00:28:57.348Z,99.90
2018-04-25T00:29:59.875Z,99.90
2018-04-25T00:31:03.163Z,99.90
2018-04-25T00:32:05.714Z,99.90
2018-04-25T00:33:09.040Z,99.90
2018-04-25T00:34:11.632Z,99.90
2018-04-25T00:35:14.160Z,99.90
2018-04-25T00:36:16.693Z,99.90
2018-04-25T00:37:19.224Z,99.90
2018-04-25T00:38:21.747Z,99.90
2018-04-25T00:39:24.320Z,99.90
2018-04-25T00:40:26.851Z,99.90
2018-04-25T00:41:29.377Z,99.90
2018-04-25T00:42:31.911Z,99.90
2018-04-25T00:43:34.432Z,99.90
2018-04-25T00:44:37.000Z,99.90
2018-04-25T00:45:39.576Z,99.90
2018-04-25T00:46:42.093Z,99.90
2018-04-25T00:47:44.624Z,99.90
2018-04-25T00:48:47.911Z,99.90
2018-04-25T00:49:51.267Z,99.90
2018-04-25T00:50:53.829Z,99.90
2018-04-25T00:51:56.353Z,99.90
2018-04-25T00:52:58.888Z,99.90
2018-04-25T00:54:02.190Z,99.90
2018-04-25T00:55:05.515Z,99.90
2018-04-25T00:56:08.047Z,99.90
2018-04-25T00:57:10.575Z,99.90
2018-04-25T00:58:13.148Z,99.90
2018-04-25T00:59:16.452Z,99.90
2018-04-25T01:00:19.768Z,99.90
2018-04-25T01:01:22.304Z,99.90
2018-04-25T01:02:25.614Z,99.90
2018-04-25T01:03:28.169Z,99.90
2018-04-25T01:04:30.714Z,99.90
2018-04-25T01:05:33.283Z,99.90
2018-04-25T01:06:36.574Z,99.90
2018-04-25T01:07:39.898Z,99.90
2018-04-25T01:08:42.436Z,99.90
2018-04-25T01:09:44.974Z,99.90
2018-04-25T01:11:56.505Z,99.90
2018-04-25T01:12:59.056Z,99.90
2018-04-25T01:14:01.587Z,99.90
2018-04-25T01:15:04.129Z,99.90
2018-04-25T01:16:06.667Z,99.90
2018-04-25T01:17:09.200Z,99.90
2018-04-25T01:18:11.752Z,99.90
2018-04-25T01:19:15.079Z,99.90
2018-04-25T01:20:18.453Z,99.90
2018-04-25T01:21:20.980Z,99.90
2018-04-25T01:22:23.525Z,99.90
2018-04-25T01:23:26.049Z,99.90
2018-04-25T01:24:28.631Z,99.90
2018-04-25T01:25:33.111Z,99.90
2018-04-25T01:26:36.437Z,99.90
2018-04-25T01:27:38.996Z,99.90
2018-04-25T01:28:49.181Z,99.90
2018-04-25T01:29:51.719Z,99.90
2018-04-25T01:30:59.820Z,99.90
2018-04-25T01:32:03.159Z,99.90
2018-04-25T01:33:06.513Z,99.90
2018-04-25T01:34:14.016Z,99.90
2018-04-25T01:35:17.311Z,99.90
2018-04-25T01:36:26.245Z,99.90
2018-04-25T01:37:40.247Z,99.90
2018-04-25T01:38:46.749Z,99.90
2018-04-25T01:39:49.272Z,99.90
2018-04-25T01:40:52.574Z,99.90
2018-04-25T01:41:55.113Z,99.90
2018-04-25T01:44:35.113Z,99.90
2018-04-25T01:45:40.391Z,99.90
2018-04-25T01:46:42.912Z,99.90
2018-04-25T01:47:45.435Z,99.90
2018-04-25T01:50:38.439Z,99.90
2018-04-25T01:51:52.751Z,99.90
2018-04-25T01:53:07.976Z,99.90
2018-04-25T01:54:22.351Z,99.90
2018-04-25T01:55:37.564Z,99.90
2018-04-25T01:56:51.937Z,99.90
2018-04-25T01:58:06.251Z,99.90
2018-04-25T01:59:20.727Z,99.90
2018-04-25T02:00:35.026Z,99.90
2018-04-25T02:01:37.065Z,99.90
2018-04-25T02:02:39.109Z,99.90
2018-04-25T02:03:52.526Z,99.90
2018-04-25T02:04:55.867Z,99.90
2018-04-25T02:05:58.385Z,99.90
2018-04-25T02:07:00.918Z,99.90
2018-04-25T02:08:03.445Z,99.90
2018-04-25T02:09:05.985Z,99.90
2018-04-25T02:10:08.544Z,99.90
2018-04-25T02:11:11.831Z,99.90
2018-04-25T02:12:14.372Z,99.90
2018-04-25T02:13:16.904Z,99.90
2018-04-25T02:14:19.472Z,99.90
2018-04-25T02:15:21.996Z,99.90
2018-04-25T02:16:24.524Z,99.90
2018-04-25T02:17:27.048Z,99.90
2018-04-25T02:18:35.057Z,99.90
2018-04-25T02:19:37.641Z,99.90
2018-04-25T02:20:40.172Z,99.90
2018-04-25T02:21:42.696Z,99.90
2018-04-25T02:22:45.219Z,99.90
2018-04-25T02:23:47.734Z,99.90
2018-04-25T02:24:51.068Z,99.90
2018-04-25T02:25:53.594Z,99.90
2018-04-25T02:26:56.883Z,99.90
2018-04-25T02:28:00.175Z,99.90
2018-04-25T02:29:02.723Z,99.90
2018-04-25T02:30:06.057Z,99.90
2018-04-25T02:31:08.583Z,99.90
2018-04-25T02:32:11.105Z,99.90
2018-04-25T02:33:13.629Z,99.90
2018-04-25T02:34:16.144Z,99.90
2018-04-25T02:35:18.704Z,99.80
2018-04-25T02:36:21.232Z,99.70
2018-04-25T02:37:23.752Z,99.50
2018-04-25T02:38:26.288Z,99.60
2018-04-25T02:39:28.856Z,99.70
2018-04-25T02:40:31.382Z,99.50
2018-04-25T02:41:33.916Z,99.40
2018-04-25T02:42:36.432Z,99.40
2018-04-25T02:43:38.968Z,99.20
2018-04-25T02:44:42.279Z,99.40
2018-04-25T02:45:44.824Z,99.40
2018-04-25T02:46:48.120Z,99.40
2018-04-25T02:47:50.648Z,99.40
2018-04-25T02:48:53.244Z,99.10
2018-04-25T02:49:55.780Z,98.80
2018-04-25T02:50:58.322Z,98.90
2018-04-25T02:52:00.850Z,99.00
2018-04-25T02:53:03.367Z,99.00
2018-04-25T02:54:05.928Z,99.00
2018-04-25T02:55:08.492Z,99.00
2018-04-25T02:56:11.013Z,98.80
2018-04-25T02:57:13.536Z,98.70
2018-04-25T02:58:16.071Z,98.70
2018-04-25T02:59:18.618Z,98.50
2018-04-25T03:00:21.186Z,98.40
2018-04-25T03:01:23.704Z,98.30
2018-04-25T03:02:26.224Z,98.40
2018-04-25T03:03:28.815Z,98.20
2018-04-25T03:04:32.059Z,98.10
2018-04-25T03:05:34.611Z,98.10
2018-04-25T03:06:37.899Z,98.10
2018-04-25T03:07:40.505Z,98.10
2018-04-25T03:08:43.040Z,98.00
2018-04-25T03:09:46.339Z,98.30
2018-04-25T03:10:48.883Z,98.30
2018-04-25T03:11:52.197Z,98.00
2018-04-25T03:12:54.725Z,98.00
2018-04-25T03:13:58.012Z,98.10
2018-04-25T03:15:01.294Z,98.00
2018-04-25T03:16:04.590Z,97.90
2018-04-25T03:17:07.915Z,97.70
2018-04-25T03:18:10.432Z,97.70
2018-04-25T03:19:13.736Z,97.80
2018-04-25T03:20:16.250Z,97.80
2018-04-25T03:21:18.775Z,97.60
2018-04-25T03:22:21.328Z,98.00
2018-04-25T03:23:23.850Z,97.70
2018-04-25T03:24:26.372Z,97.60
2018-04-25T03:25:28.929Z,97.70
2018-04-25T03:26:31.452Z,97.70
2018-04-25T03:27:34.001Z,97.60
2018-04-25T03:28:36.549Z,97.60
2018-04-25T03:29:39.084Z,97.70
2018-04-25T03:30:42.373Z,97.60
2018-04-25T03:31:44.909Z,97.60
2018-04-25T03:32:47.440Z,97.70
2018-04-25T03:33:50.006Z,97.80
2018-04-25T03:34:52.536Z,97.70
2018-04-25T03:35:55.048Z,97.70
2018-04-25T03:36:57.568Z,97.80
2018-04-25T03:38:00.103Z,98.00
2018-04-25T03:39:02.902Z,98.00
2018-04-25T03:40:06.192Z,97.90
2018-04-25T03:41:08.827Z,97.90
2018-04-25T03:42:11.298Z,97.90
2018-04-25T03:43:14.602Z,97.80
2018-04-25T03:44:17.153Z,97.80
2018-04-25T03:45:20.446Z,98.20
2018-04-25T03:46:23.768Z,97.70
2018-04-25T03:47:26.293Z,97.70
2018-04-25T03:48:29.615Z,98.10
2018-04-25T03:49:32.208Z,98.10
2018-04-25T03:50:34.735Z,97.70
2018-04-25T03:51:37.264Z,97.90
2018-04-25T03:52:39.828Z,97.90
2018-04-25T03:53:42.359Z,97.80
2018-04-25T03:54:44.883Z,97.60
2018-04-25T03:55:48.187Z,97.60
2018-04-25T03:56:50.705Z,97.60
2018-04-25T03:57:53.274Z,97.70
2018-04-25T03:58:55.800Z,97.70
2018-04-25T03:59:58.328Z,97.50
2018-04-25T04:01:01.627Z,97.40
2018-04-25T04:02:04.175Z,97.40
2018-04-25T04:03:07.464Z,97.40
2018-04-25T04:04:10.753Z,97.40
2018-04-25T04:05:13.287Z,97.40
2018-04-25T04:06:15.838Z,97.20
2018-04-25T04:07:18.370Z,97.40
2018-04-25T04:08:20.901Z,97.40
2018-04-25T04:09:24.199Z,97.50
2018-04-25T04:10:27.495Z,97.50
2018-04-25T04:11:30.065Z,97.50
2018-04-25T04:12:32.581Z,97.30
2018-04-25T04:13:35.107Z,97.20
2018-04-25T04:14:37.633Z,97.50
2018-04-25T04:15:40.199Z,97.20
2018-04-25T04:16:43.501Z,97.10
2018-04-25T04:17:46.801Z,97.10
2018-04-25T04:18:49.324Z,97.10
2018-04-25T04:19:51.850Z,97.20
2018-04-25T04:20:54.425Z,97.00
2018-04-25T04:21:56.945Z,97.20
2018-04-25T04:23:00.231Z,97.00
2018-04-25T04:24:03.525Z,97.10
2018-04-25T04:25:06.044Z,97.10
2018-04-25T04:26:08.594Z,97.10
2018-04-25T04:27:11.113Z,97.30
2018-04-25T04:28:14.404Z,97.00
2018-04-25T04:29:16.945Z,97.00
2018-04-25T04:30:19.466Z,97.20
2018-04-25T04:31:22.021Z,97.10
2018-04-25T04:32:24.553Z,97.00
2018-04-25T04:33:27.842Z,96.80
2018-04-25T04:34:31.123Z,97.10
2018-04-25T04:35:34.413Z,97.00
2018-04-25T04:36:37.732Z,96.90
2018-04-25T04:37:40.255Z,96.90
2018-04-25T04:38:43.532Z,96.90
2018-04-25T04:39:46.820Z,97.00
2018-04-25T04:40:50.116Z,96.90
2018-04-25T04:41:53.461Z,96.80
2018-04-25T04:42:55.983Z,96.80
2018-04-25T04:43:58.507Z,97.00
2018-04-25T04:45:01.051Z,96.80
2018-04-25T04:46:03.575Z,97.00
2018-04-25T04:47:06.143Z,97.00
2018-04-25T04:48:08.660Z,96.90
2018-04-25T04:49:11.182Z,97.00
2018-04-25T04:50:13.753Z,96.80
2018-04-25T04:51:16.297Z,96.70
2018-04-25T04:52:18.821Z,96.60
2018-04-25T04:53:21.352Z,97.00
2018-04-25T04:54:23.897Z,96.90
2018-04-25T04:55:26.464Z,96.60
2018-04-25T04:56:29.020Z,96.70
2018-04-25T04:57:32.318Z,96.90
2018-04-25T04:58:34.844Z,96.90
2018-04-25T04:59:37.375Z,97.10
2018-04-25T05:00:39.932Z,96.90
2018-04-25T05:01:42.484Z,96.90
2018-04-25T05:02:45.012Z,97.00
2018-04-25T05:03:47.541Z,96.90
2018-04-25T05:04:50.077Z,96.90
2018-04-25T05:05:52.604Z,97.00
2018-04-25T05:06:55.163Z,96.70
2018-04-25T05:07:57.693Z,97.10
2018-04-25T05:09:00.224Z,96.90
2018-04-25T05:10:03.514Z,96.70
2018-04-25T05:11:06.799Z,96.90
2018-04-25T05:12:10.113Z,97.00
2018-04-25T05:13:12.717Z,97.00
2018-04-25T05:14:15.987Z,97.10
2018-04-25T05:15:18.542Z,97.10
2018-04-25T05:16:21.065Z,97.00
2018-04-25T05:17:24.339Z,97.30
2018-04-25T05:18:27.735Z,97.40
2018-04-25T05:19:31.029Z,97.90
2018-04-25T05:20:33.597Z,97.90
2018-04-25T05:21:36.132Z,97.70
2018-04-25T05:22:38.682Z,97.40
2018-04-25T05:23:41.255Z,97.50
2018-04-25T05:24:43.880Z,98.00
2018-04-25T05:25:46.337Z,97.70
2018-04-25T05:26:48.862Z,97.70
2018-04-25T05:27:52.166Z,97.70
2018-04-25T05:28:55.489Z,97.70
2018-04-25T05:29:58.020Z,97.60
2018-04-25T05:31:01.305Z,97.50
2018-04-25T05:32:04.659Z,97.50
2018-04-25T05:33:07.135Z,97.50
2018-04-25T05:34:09.692Z,97.80
2018-04-25T05:35:12.220Z,97.70
2018-04-25T05:36:14.761Z,97.70
2018-04-25T05:37:18.043Z,97.60
2018-04-25T05:38:21.323Z,97.70
2018-04-25T05:39:24.636Z,97.50
2018-04-25T05:40:27.164Z,97.50
2018-04-25T05:41:30.456Z,97.70
2018-04-25T05:42:33.740Z,97.70
2018-04-25T05:43:37.029Z,97.40
2018-04-25T05:44:39.589Z,97.40
2018-04-25T05:45:42.884Z,97.70
2018-04-25T05:46:45.424Z,97.70
2018-04-25T05:47:48.707Z,97.60
2018-04-25T05:48:51.228Z,97.40
2018-04-25T05:49:53.783Z,97.50
2018-04-25T05:50:56.301Z,97.60
2018-04-25T05:51:58.817Z,97.60
2018-04-25T05:53:01.346Z,97.70
2018-04-25T05:54:04.644Z,97.70
2018-04-25T05:55:07.200Z,97.70
2018-04-25T05:56:10.492Z,97.50
2018-04-25T05:57:13.768Z,97.70
2018-04-25T05:58:17.060Z,97.60
2018-04-25T05:59:19.580Z,97.70
2018-04-25T06:00:22.133Z,97.70
2018-04-25T06:01:24.690Z,97.60
2018-04-25T06:02:27.264Z,97.70
2018-04-25T06:03:29.884Z,97.60
2018-04-25T06:04:32.415Z,97.70
2018-04-25T06:05:34.948Z,97.50
2018-04-25T06:06:37.509Z,97.90
2018-04-25T06:07:40.036Z,97.40
2018-04-25T06:08:43.317Z,97.70
2018-04-25T06:09:45.843Z,97.40
2018-04-25T06:10:48.354Z,97.70
2018-04-25T06:11:51.854Z,97.70
2018-04-25T06:12:55.144Z,97.70
2018-04-25T06:13:58.430Z,97.50
2018-04-25T06:15:00.952Z,97.60
2018-04-25T06:16:03.510Z,97.30
2018-04-25T06:17:06.035Z,97.40
2018-04-25T06:18:08.590Z,97.60
2018-04-25T06:19:11.116Z,97.60
2018-04-25T06:20:13.642Z,97.80
2018-04-25T06:21:16.176Z,97.90
2018-04-25T06:22:19.503Z,97.70
2018-04-25T06:23:22.041Z,97.70
2018-04-25T06:24:24.573Z,97.60
2018-04-25T06:25:27.091Z,97.70
2018-04-25T06:26:29.736Z,97.90
2018-04-25T06:27:32.199Z,97.90
2018-04-25T06:28:35.497Z,98.00
2018-04-25T06:29:38.064Z,98.00
2018-04-25T06:30:40.582Z,98.00
2018-04-25T06:31:43.109Z,97.70
2018-04-25T06:32:45.638Z,97.80
2018-04-25T06:33:49.008Z,98.00
2018-04-25T06:34:51.567Z,98.00
2018-04-25T06:35:54.087Z,98.00
2018-04-25T06:36:56.609Z,98.20
2018-04-25T06:37:59.131Z,97.80
2018-04-25T06:39:01.688Z,97.80
2018-04-25T06:40:04.208Z,98.10
2018-04-25T06:41:06.728Z,98.00
2018-04-25T06:42:09.247Z,98.10
2018-04-25T06:43:11.759Z,98.00
2018-04-25T06:44:14.311Z,97.80
2018-04-25T06:45:16.837Z,97.80
2018-04-25T06:46:19.359Z,97.90
2018-04-25T06:47:21.883Z,97.70
2018-04-25T06:48:25.171Z,97.70
2018-04-25T06:49:28.483Z,97.80
2018-04-25T06:50:31.035Z,97.80
2018-04-25T06:51:33.599Z,98.00
2018-04-25T06:52:36.887Z,97.70
2018-04-25T06:53:39.411Z,97.70
2018-04-25T06:54:41.932Z,97.70
2018-04-25T06:55:44.460Z,97.70
2018-04-25T06:56:47.034Z,97.80
2018-04-25T06:57:50.323Z,97.80
2018-04-25T06:58:53.646Z,97.70
2018-04-25T06:59:56.171Z,97.60
2018-04-25T07:00:59.462Z,97.80
2018-04-25T07:02:02.784Z,97.90
2018-04-25T07:03:05.343Z,97.90
2018-04-25T07:04:07.885Z,98.10
2018-04-25T07:05:10.432Z,97.70
2018-04-25T07:06:13.729Z,97.90
2018-04-25T07:07:17.025Z,98.00
2018-04-25T07:08:19.561Z,98.00
2018-04-25T07:09:22.086Z,98.10
2018-04-25T07:10:24.640Z,98.10
2018-04-25T07:11:27.179Z,98.30
2018-04-25T07:12:29.699Z,98.10
2018-04-25T07:13:32.241Z,98.00
2018-04-25T07:14:34.771Z,98.50
2018-04-25T07:15:38.097Z,98.30
2018-04-25T07:16:40.619Z,98.30
2018-04-25T07:17:43.908Z,98.40
2018-04-25T07:18:47.209Z,98.40
2018-04-25T07:19:49.731Z,98.40
2018-04-25T07:20:52.297Z,98.10
2018-04-25T07:21:54.816Z,98.00
2018-04-25T07:22:57.389Z,98.10
2018-04-25T07:23:59.907Z,97.90
2018-04-25T07:25:03.205Z,98.20
2018-04-25T07:26:06.483Z,98.10
2018-04-25T07:27:09.768Z,98.20
2018-04-25T07:28:13.116Z,98.00
2018-04-25T07:29:15.648Z,98.00
2018-04-25T07:30:18.169Z,98.00
2018-04-25T07:31:20.692Z,97.60
2018-04-25T07:32:23.239Z,98.20
2018-04-25T07:33:25.779Z,98.20
2018-04-25T07:34:29.075Z,97.90
2018-04-25T07:35:32.366Z,98.00
2018-04-25T07:36:34.933Z,97.90
2018-04-25T07:37:37.492Z,97.90
2018-04-25T07:38:40.812Z,97.70
2018-04-25T07:39:43.347Z,97.70
2018-04-25T07:40:45.954Z,97.70
2018-04-25T07:41:49.186Z,98.40
2018-04-25T07:42:51.729Z,98.10
2018-04-25T07:43:54.295Z,97.80
2018-04-25T07:44:56.816Z,97.70
2018-04-25T07:45:59.330Z,97.90
2018-04-25T07:47:01.892Z,97.60
2018-04-25T07:48:04.417Z,97.80
2018-04-25T07:49:06.982Z,97.40
2018-04-25T07:50:09.511Z,97.20
2018-04-25T07:51:12.804Z,97.60
2018-04-25T07:52:16.143Z,97.60
2018-04-25T07:53:18.698Z,97.60
2018-04-25T07:54:21.245Z,97.70
2018-04-25T07:55:23.771Z,97.60
2018-04-25T07:56:26.292Z,97.90
2018-04-25T07:57:28.820Z,97.60
2018-04-25T07:58:32.107Z,97.80
2018-04-25T07:59:35.454Z,97.60
2018-04-25T08:00:37.974Z,97.60
2018-04-25T08:01:40.503Z,97.60
2018-04-25T08:02:43.028Z,97.50
2018-04-25T08:03:45.568Z,97.30
2018-04-25T08:04:48.141Z,97.50
2018-04-25T08:05:50.671Z,97.30
2018-04-25T08:06:53.219Z,97.50
2018-04-25T08:07:55.748Z,97.50
2018-04-25T08:08:58.290Z,97.40
2018-04-25T08:10:01.599Z,97.40
2018-04-25T08:11:04.132Z,97.40
2018-04-25T08:12:19.293Z,97.60
2018-04-25T08:13:34.415Z,97.70
2018-04-25T08:14:48.857Z,97.70
2018-04-25T08:16:03.348Z,97.50
2018-04-25T08:17:18.499Z,97.40
2018-04-25T08:18:33.751Z,97.90
2018-04-25T08:20:00.714Z,97.90
2018-04-25T08:21:15.816Z,97.60
2018-04-25T08:22:18.349Z,97.60
2018-04-25T08:23:20.898Z,97.90
2018-04-25T08:24:24.243Z,97.90
2018-04-25T08:25:26.764Z,97.90
2018-04-25T08:26:30.046Z,97.90
2018-04-25T08:27:33.331Z,97.70
2018-04-25T08:28:36.621Z,97.60
2018-04-25T08:29:39.174Z,97.60
2018-04-25T08:30:42.497Z,97.90
2018-04-25T08:31:45.031Z,97.80
2018-04-25T08:32:48.328Z,97.60
2018-04-25T08:33:50.852Z,97.60
2018-04-25T08:34:53.380Z,97.50
2018-04-25T08:35:55.937Z,97.30
2018-04-25T08:36:58.504Z,97.90
2018-04-25T08:38:01.032Z,98.00
2018-04-25T08:39:05.044Z,97.70
2018-04-25T08:40:08.323Z,97.70
2018-04-25T08:41:11.611Z,97.30
2018-04-25T08:42:14.176Z,97.30
2018-04-25T08:43:17.465Z,98.10
2018-04-25T08:44:20.017Z,98.10
2018-04-25T08:45:23.321Z,97.20
2018-04-25T08:46:25.851Z,97.20
2018-04-25T08:47:28.426Z,97.30
2018-04-25T08:48:31.720Z,97.20
2018-04-25T08:49:35.017Z,97.30
2018-04-25T08:50:37.536Z,97.20
2018-04-25T08:51:40.835Z,97.60
2018-04-25T08:52:43.447Z,97.90
2018-04-25T08:53:46.718Z,97.40
2018-04-25T08:54:49.279Z,97.40
2018-04-25T08:55:52.571Z,97.60
2018-04-25T08:56:55.096Z,97.60
2018-04-25T08:57:57.625Z,97.60
2018-04-25T08:59:00.193Z,97.90
2018-04-25T09:00:02.720Z,97.70
2018-04-25T09:01:06.016Z,97.80
2018-04-25T09:02:08.549Z,97.80
2018-04-25T09:03:11.070Z,98.20
2018-04-25T09:04:13.682Z,98.40
2018-04-25T09:05:16.181Z,98.20
2018-04-25T09:06:18.703Z,98.40
2018-04-25T09:07:21.248Z,98.70
2018-04-25T09:08:23.777Z,98.80
2018-04-25T09:09:26.337Z,98.80
2018-04-25T09:10:29.623Z,99.50
2018-04-25T09:11:32.922Z,99.90
2018-04-25T09:12:35.441Z,99.90
2018-04-25T09:13:38.000Z,99.90
2018-04-25T09:14:40.555Z,99.90
2018-04-25T09:15:43.076Z,99.90
2018-04-25T09:16:45.596Z,99.90
2018-04-25T09:17:48.115Z,99.90
2018-04-25T09:18:50.637Z,99.90
2018-04-25T09:19:53.191Z,99.90
2018-04-25T09:20:55.734Z,99.90
2018-04-25T09:21:58.253Z,99.90
2018-04-25T09:23:00.783Z,99.90
2018-04-25T09:24:03.337Z,99.90
2018-04-25T09:25:05.896Z,99.90
2018-04-25T09:26:08.410Z,99.90
2018-04-25T09:27:11.715Z,99.90
2018-04-25T09:28:14.998Z,99.90
2018-04-25T09:29:18.276Z,99.90
2018-04-25T09:30:21.600Z,99.90
2018-04-25T09:31:24.125Z,99.90
2018-04-25T09:32:27.451Z,99.90
2018-04-25T09:33:29.979Z,99.90
2018-04-25T09:34:33.352Z,99.90
2018-04-25T09:35:35.803Z,99.90
2018-04-25T09:36:38.324Z,99.90
2018-04-25T09:37:40.879Z,99.90
2018-04-25T09:38:43.399Z,99.90
2018-04-25T09:39:45.923Z,99.90
2018-04-25T09:40:48.474Z,99.90
2018-04-25T09:41:51.011Z,99.90
2018-04-25T09:42:53.538Z,99.90
2018-04-25T09:43:56.064Z,99.90
2018-04-25T09:44:59.356Z,99.90
2018-04-25T09:46:01.953Z,99.90
2018-04-25T09:47:04.460Z,99.90
2018-04-25T09:48:06.979Z,99.90
2018-04-25T09:49:09.500Z,99.90
2018-04-25T09:50:12.783Z,99.90
2018-04-25T09:51:16.105Z,99.90
2018-04-25T09:52:18.635Z,99.90
2018-04-25T09:53:21.928Z,99.90
2018-04-25T09:54:25.239Z,99.90
2018-04-25T09:55:27.801Z,99.90
2018-04-25T09:56:30.320Z,99.90
2018-04-25T09:57:32.914Z,99.90
2018-04-25T09:58:35.460Z,99.90
2018-04-25T09:59:37.971Z,99.90
2018-04-25T10:00:46.243Z,99.90
2018-04-25T10:01:55.335Z,99.90
2018-04-25T10:02:57.847Z,99.90
2018-04-25T10:04:00.426Z,99.90
2018-04-25T10:05:02.962Z,99.90
2018-04-25T10:06:06.244Z,99.90
2018-04-25T10:07:09.528Z,99.90
2018-04-25T10:08:12.807Z,99.90
2018-04-25T10:09:16.124Z,99.90
2018-04-25T10:10:18.640Z,99.90
2018-04-25T10:11:21.187Z,99.90
2018-04-25T10:12:23.717Z,99.90
2018-04-25T10:13:26.238Z,99.90
2018-04-25T10:14:28.806Z,99.90
2018-04-25T10:15:31.340Z,99.90
2018-04-25T10:16:33.872Z,99.90
2018-04-25T10:17:36.396Z,99.90
2018-04-25T10:18:38.924Z,99.90
2018-04-25T10:19:41.463Z,99.90
2018-04-25T10:20:44.779Z,99.90
2018-04-25T10:21:47.311Z,99.90
2018-04-25T10:22:50.631Z,99.90
2018-04-25T10:23:53.170Z,99.90
2018-04-25T10:24:55.704Z,99.90
2018-04-25T10:25:58.232Z,99.90
2018-04-25T10:27:00.759Z,99.90
2018-04-25T10:28:04.071Z,99.90
2018-04-25T10:29:06.598Z,99.90
2018-04-25T10:30:09.888Z,99.80
2018-04-25T10:31:13.197Z,99.90
2018-04-25T10:32:15.749Z,99.90
2018-04-25T10:33:19.079Z,99.90
2018-04-25T10:34:21.609Z,99.90
2018-04-25T10:35:24.151Z,99.90
2018-04-25T10:36:27.497Z,98.10
2018-04-25T10:37:29.984Z,98.00
2018-04-25T10:38:32.540Z,98.20
2018-04-25T10:39:35.051Z,98.70
2018-04-25T10:40:37.590Z,99.00
2018-04-25T10:41:40.124Z,98.70
2018-04-25T10:42:42.678Z,98.50
2018-04-25T10:43:45.200Z,98.40
2018-04-25T10:44:48.488Z,98.90
2018-04-25T10:45:51.788Z,97.30
2018-04-25T10:46:54.323Z,97.30
2018-04-25T10:47:57.679Z,96.80
2018-04-25T10:49:00.228Z,96.80
2018-04-25T10:50:02.763Z,96.70
2018-04-25T10:51:05.301Z,96.40
2018-04-25T10:52:07.861Z,96.30
2018-04-25T10:53:10.384Z,95.50
2018-04-25T10:54:12.904Z,96.60
2018-04-25T10:55:15.436Z,97.30
2018-04-25T10:56:17.964Z,97.90
2018-04-25T10:57:20.513Z,96.40
2018-04-25T10:58:23.807Z,96.80
2018-04-25T10:59:27.091Z,96.20
2018-04-25T11:00:30.421Z,95.30
2018-04-25T11:01:32.931Z,95.40
2018-04-25T11:02:36.220Z,94.70
2018-04-25T11:03:39.507Z,95.20
2018-04-25T11:04:42.795Z,95.10
2018-04-25T11:05:46.117Z,94.10
2018-04-25T11:06:48.668Z,94.20
2018-04-25T11:07:51.202Z,94.10
2018-04-25T11:08:54.510Z,93.40
2018-04-25T11:09:57.030Z,93.40
2018-04-25T11:10:59.596Z,93.60
2018-04-25T11:12:02.121Z,93.20
2018-04-25T11:13:04.649Z,93.30
2018-04-25T11:14:07.960Z,92.50
2018-04-25T11:15:10.496Z,92.50
2018-04-25T11:16:13.820Z,93.40
2018-04-25T11:17:16.343Z,93.40
2018-04-25T11:18:18.861Z,93.90
2018-04-25T11:19:21.388Z,94.50
2018-04-25T11:20:24.790Z,95.10
2018-04-25T11:21:27.256Z,95.10
2018-04-25T11:22:29.811Z,95.90
2018-04-25T11:23:32.331Z,96.90
2018-04-25T11:24:34.855Z,96.30
2018-04-25T11:25:37.377Z,97.30
2018-04-25T11:26:39.942Z,96.90
2018-04-25T11:27:42.463Z,97.80
2018-04-25T11:28:44.983Z,98.00
2018-04-25T11:29:47.504Z,98.60
2018-04-25T11:30:50.066Z,98.60
2018-04-25T11:31:52.603Z,98.90
2018-04-25T11:32:55.131Z,99.40
2018-04-25T11:33:57.649Z,99.20
2018-04-25T11:35:00.226Z,99.00
2018-04-25T11:36:02.753Z,98.60
2018-04-25T11:37:06.048Z,97.70
2018-04-25T11:38:09.332Z,97.60
2018-04-25T11:39:12.614Z,97.40
2018-04-25T11:40:15.946Z,97.30
2018-04-25T11:41:18.485Z,97.30
2018-04-25T11:42:21.000Z,97.20
2018-04-25T11:43:23.564Z,97.50
2018-04-25T11:44:26.081Z,97.10
2018-04-25T11:45:28.600Z,97.30
2018-04-25T11:46:31.132Z,98.30
2018-04-25T11:47:33.662Z,98.00
2018-04-25T11:48:36.987Z,98.20
2018-04-25T11:49:39.513Z,98.20
2018-04-25T11:50:42.792Z,97.90
2018-04-25T11:51:46.093Z,98.00
2018-04-25T11:52:48.626Z,98.00
2018-04-25T11:53:51.196Z,97.50
2018-04-25T11:54:54.500Z,97.90
2018-04-25T11:55:57.789Z,98.50
2018-04-25T11:57:00.313Z,98.50
2018-04-25T11:58:02.832Z,98.90
2018-04-25T11:59:05.399Z,98.80
2018-04-25T12:00:07.926Z,99.00
2018-04-25T12:01:10.470Z,99.20
2018-04-25T12:02:12.990Z,99.90
2018-04-25T12:03:15.512Z,99.90
2018-04-25T12:04:18.075Z,99.80
2018-04-25T12:05:20.592Z,99.20
2018-04-25T12:06:23.116Z,99.60
2018-04-25T12:07:25.651Z,99.20
2018-04-25T12:08:28.175Z,99.10
2018-04-25T12:09:30.744Z,98.70
2018-04-25T12:10:33.269Z,98.30
2018-04-25T12:11:35.797Z,96.90
2018-04-25T12:12:38.363Z,96.60
2018-04-25T12:13:40.899Z,96.50
2018-04-25T12:14:44.179Z,96.20
2018-04-25T12:15:47.465Z,96.60
2018-04-25T12:16:50.756Z,96.00
2018-04-25T12:17:54.082Z,96.10
2018-04-25T12:18:56.607Z,96.20
2018-04-25T12:19:59.896Z,96.50
2018-04-25T12:21:02.443Z,96.50
2018-04-25T12:22:05.765Z,93.30
2018-04-25T12:23:08.300Z,93.20
2018-04-25T12:24:11.587Z,93.50
2018-04-25T12:25:14.866Z,94.00
2018-04-25T12:26:18.191Z,94.20
2018-04-25T12:27:20.739Z,94.20
2018-04-25T12:28:23.259Z,94.50
2018-04-25T12:29:25.780Z,94.00
2018-04-25T12:30:28.318Z,92.40
2018-04-25T12:31:31.631Z,93.80
2018-04-25T12:32:34.155Z,93.80
2018-04-25T12:33:36.682Z,94.70
2018-04-25T12:34:39.240Z,93.70
2018-04-25T12:35:41.789Z,92.50
2018-04-25T12:36:44.327Z,92.40
2018-04-25T12:37:47.646Z,93.10
2018-04-25T12:38:50.166Z,93.10
2018-04-25T12:39:52.699Z,94.00
2018-04-25T12:40:55.237Z,94.10
2018-04-25T12:41:57.772Z,94.40
2018-04-25T12:43:00.337Z,94.40
2018-04-25T12:44:03.619Z,93.60
2018-04-25T12:45:06.131Z,93.50
2018-04-25T12:46:08.641Z,94.10
2018-04-25T12:47:11.255Z,94.40
2018-04-25T12:48:13.748Z,94.40
2018-04-25T12:49:16.262Z,93.90
2018-04-25T12:50:19.587Z,95.00
2018-04-25T12:51:22.112Z,95.00
2018-04-25T12:52:25.406Z,94.80
2018-04-25T12:53:27.934Z,94.80
2018-04-25T12:54:30.495Z,95.10
2018-04-25T12:55:33.044Z,93.50
2018-04-25T12:56:35.568Z,93.20
2018-04-25T12:57:38.891Z,93.40
2018-04-25T12:58:41.400Z,93.40
2018-04-25T12:59:44.704Z,92.50
2018-04-25T13:00:47.231Z,92.40
2018-04-25T13:01:49.752Z,92.20
2018-04-25T13:02:52.313Z,91.20
2018-04-25T13:03:54.842Z,91.20
2018-04-25T13:04:57.363Z,92.00
2018-04-25T13:05:59.893Z,92.40
2018-04-25T13:07:03.175Z,92.20
2018-04-25T13:08:06.507Z,91.50
2018-04-25T13:09:09.090Z,91.50
2018-04-25T13:10:11.579Z,91.90
2018-04-25T13:11:14.107Z,90.10
2018-04-25T13:12:17.404Z,88.80
2018-04-25T13:13:19.959Z,88.60
2018-04-25T13:14:22.521Z,86.90
2018-04-25T13:15:25.043Z,88.40
2018-04-25T13:16:28.337Z,86.90
2018-04-25T13:17:30.861Z,87.10
2018-04-25T13:18:33.421Z,88.00
2018-04-25T13:19:35.946Z,86.10
2018-04-25T13:20:38.465Z,85.10
2018-04-25T13:21:41.009Z,85.00
2018-04-25T13:22:43.526Z,83.90
2018-04-25T13:23:46.055Z,84.40
2018-04-25T13:24:48.580Z,83.60
2018-04-25T13:25:51.139Z,83.00
2018-04-25T13:26:53.668Z,83.90
2018-04-25T13:27:56.201Z,83.90
2018-04-25T13:28:58.729Z,83.20
2018-04-25T13:30:01.284Z,85.10
2018-04-25T13:31:04.620Z,80.40
2018-04-25T13:32:07.139Z,80.40
2018-04-25T13:33:10.452Z,81.80
2018-04-25T13:34:12.979Z,81.80
2018-04-25T13:35:16.265Z,79.10
2018-04-25T13:36:19.580Z,79.50
2018-04-25T13:37:22.105Z,79.50